Impacts METAR Board
IDs:

KPHL - Philadelphia Intl, PA, US

Updated at: 2200 UTC 14 Aug 2018
Potential Impact None Slight Moderate High
Time 14/10Z 14/11Z 14/12Z 14/13Z 14/14Z 14/15Z 14/16Z 14/17Z 14/18Z 14/19Z 14/20Z 14/21Z 14/22Z
Temp70 69 69 72 75 78 78 81 76 74 74 78 79
Dewpt68 67 68 68 68 67 67 65 67 69 68 69 68
Altim29.89 29.91 29.91 29.91 29.90 29.91 29.90 29.88 29.88 29.88 29.86 29.86 29.88
VIS10 5 4 7 10 10 10 10 10 2 10 10 10
CIG6 6 5 11 -- -- -- -- 250 50 70 -- 150
CoverOVCOVCOVCBKNSCTSCTSCTSCTBKNOVCBKNSCTBKN
FltCatIFRIFRIFRMVFRVFRVFRVFRVFRVFRIFRVFRVFRVFR
WX--BRBR-----------TSRA-TSRA BRTS---TSRA
WDir230290250210180230260220210300170220250
WSpd6 5 3 6 8 9 8 12 10 16 5 8 11
WGst-- -- -- -- -- -- -- -- -- 31 -- -- 16
Raw hourly METARs
KPHL 140954Z 23006KT 10SM BKN006 OVC011 21/20 A2989 RMK AO2 SLP120 T02110200 $
KPHL 141100Z 29005KT 5SM BR OVC006 21/19 A2991 RMK AO2 T02060194 $
KPHL 141154Z 25003KT 4SM BR OVC005 21/20 A2991 RMK AO2 SLP127 CIG 004V006 70045 T02060200 10222 20200 51008
KPHL 141254Z 21006KT 7SM SCT007 BKN011 BKN023 22/20 A2991 RMK AO2 SLP126 T02220200
KPHL 141354Z 18008KT 10SM SCT014 SCT250 24/20 A2990 RMK AO2 SLP125 T02390200
KPHL 141454Z 23009KT 10SM SCT024 SCT250 26/19 A2991 RMK AO2 SLP127 T02560194 55000
KPHL 141554Z 26008KT 10SM SCT028 SCT085 SCT250 26/19 A2990 RMK AO2 RAB18E43 SLP123 VCSH P0001 T02560194
KPHL 141654Z 22012KT 10SM SCT030TCU SCT080 SCT250 27/18 A2988 RMK AO2 SLP118 TCU SW-W VCSH T02720183
KPHL 141754Z COR 21010KT 10SM -TSRA SCT035CB SCT070 BKN250 24/19 A2988 RMK AO2 RAB19 TSB37E51 SLP119 OCNL LTGIC S TS S MOV NE P0000 60001 T02440194 10278 20206 55008
KPHL 141854Z 30016G31KT 2SM R09R/2600VP6000FT -TSRA BR FEW030 BKN050CB OVC090 23/21 A2988 RMK AO2 PK WND 28031/1848 WSHFT 1839 LTG DSNT N AND NE RAE06B44 TSB1755E06E46B47 SLP117 OCNL LTGIC OHD TS OHD MOV NE P0008 T02330206
KPHL 141954Z 17005KT 10SM TS SCT040CB BKN070 BKN130 BKN250 23/20 A2986 RMK AO2 WSHFT 1841 LTG DSNT NE AND E RAE33 SLP112 OCNL LTGIC OHD TS OHD MOV E P0062 T02330200 $
KPHL 142054Z 22008KT 10SM FEW030 SCT050 SCT250 26/21 A2986 RMK AO2 LTG DSNT N AND SE AND W TSE13 SLP111 60070 T02560206 56008 $
KPHL 142154Z 25011G16KT 10SM -TSRA FEW040 SCT080CB BKN150 BKN250 26/20 A2988 RMK AO2 WSHFT 2125 LTG DSNT NE AND SW RAB36 TSB33 SLP118 OCNL LTGIC OHD TS OHD MOV E P0000 T02610200 $



Page loaded:  22:01 UTC  |   03:01 PM Pacific  |   04:01 PM Mountain  |   05:01 PM Central  |   06:01 PM Eastern

 

ADVISORIES

FORECASTS

FORECASTS

OBSERVATIONS

USER TOOLS

ABOUT US